Avalon Airport
YMAV : now visible

Airfield :











YOU CAN JOIN US ON...

 
LOGIN :

Register | Disclaimer

   EN    FR    IT 

 









Legend :    VFR   Marginal VFR   IFR   Intensive IFR   Very Intensive IFR
Visi :
Ceiling :
>= 8 km
>= 3000ft
5 to 8 km
1000 to 3000 ft
1500m to 5 km
500 to 1000 ft
800 to 1500m
200 to 500 ft
< 800m
< 200 ft
Symbols :   Thunderstorms  Fog  Heavy snow  Heavy precipitations  Wind > 20 kt






- Airport Elevation : 35 ft
- IATA code : AVV


YMAV - Avalon

CURRENT METAR :
  • 252200Z AUTO 32004KT 9999 // NCD 19/17 Q1013 RF00.0/000.0

EXPIRED METARs :
  • 252130Z AUTO 32007KT 9999 // NCD 17/17 Q1013 RF00.0/000.0
  • 252058Z AUTO 30006KT 9999 // SCT001 16/16 Q1013 RF00.0/000.0
  • 252105Z AUTO 30006KT 9999 // SCT001 16/16 Q1013
  • 252030Z AUTO 32007KT 1100 // BKN001 OVC013 OVC063 15/15 Q1013
  • 252015Z AUTO 30009KT 4500 // SCT001 BKN013 BKN063 14/14 Q1013
  • 251930Z AUTO 30005KT 9999 // NCD 14/14 Q1013 RF00.0/000.0

TAF AMD TAF YMAV
Valid from the 25 at 20:00 until the 26 at 18:00 UTC


252006Z 2520/2618 29008KT 9999 FEW010 BKN030
BECMG 2602/2604 15014KT 9999 SCT020
FM261400 16008KT 9999 BKN020
TEMPO 2520/2522 9999 BKN010
PROB30 2520/2522 0500 FG BKN002



MET'MAP, your aeronautical weather chart ! - Copyright ORBIFLY December 2007 - Disclaimer

ORBIFLY MET'MAP TEAM :

Programming & Development : Alexandra Zaïnal
Concept & original design : Baudouin d'Aumeries
Assistance for programming : Marc-Olivier Méhu
Technical & hardware support : Manuel Goepfert

Contact : metmap@orbifly.com




SOURCES & CREDITS :

   NOAA       Earth
Advisory